West Point, NE

10:25 PM CST on December 09, 2016 (GMT -0600)
Skywave Wireless, Inc. | | Change Station

Elev 1312 ft 41.84 °N, 96.71 °W | Updated 1 second ago

Overcast
Overcast
19.0 °F
Feels Like 19 °F
N
0.2
Wind Variable Wind from ENE
Gusts 2.5 mph

Today
High -- | Low -- °F
--% Chance of Precip.
Yesterday
High -- | Low -- °F
Precip. -- in
Pressure 30.54 in
Visibility 10.0 miles
Clouds Overcast 5500 ft
Windchill 19 °F
Dew Point 5 °F
Humidity 54%
Rainfall 0.00 in
Snow Depth Not available.
7:43 AM 4:55 PM
Waxing Gibbous, 80% visible
METAR KTQE 100354Z AUTO 05003KT 10SM OVC055 M07/M12 A3049 RMK AO2 SLP341 T10671117
Pressure 30.54 in
Visibility 10.0 miles
Clouds Overcast 5500 ft
Windchill 19 °F
Dew Point 5 °F
Humidity 54%
Rainfall 0.00 in
Snow Depth Not available.
7:43 AM 4:55 PM
Waxing Gibbous, 80% visible
METAR KTQE 100354Z AUTO 05003KT 10SM OVC055 M07/M12 A3049 RMK AO2 SLP341 T10671117

10-Day Weather Forecast

Almanac

Astronomy

Dec. 09, 2016 Rise Set
Actual Time
Civil Twilight
Nautical Twilight
Astronomical Twilight
Moon
Length of Visible Light
Length of Day
Tomorrow will be .
, % of the Moon is Illuminated

Today's Extremes

State Highs State Lows

Community

WunderPhotos

Upload Photos

1,956,529 photos uploaded!

WunderBlog® & News

Nearby

Air Quality

  Air Quality AQ Index Pollutant
Not available.

Snow Depth

Station Depth Elevation

Earthquake Activity

City Distance Mag. Time & Date
Minimum magnitude displayed is 2.5.

Coastal Water Temperatures

Place Temperature

Stations

Nearby Weather Stations

Station Location Temp. Windchill Dew Point Humidity Wind Precip. Elev Updated Type
                   

Watches & Warnings

There are currently no watches in effect.